Time;durP1;ratioP1;P1;durP2;ratioP2;P2;SDS_P1;SDS_P2;PMS_P1;PMS_P2;Temp;Humidity;BMP_temperature;BMP_pressure;BME280_temperature;BME280_humidity;BME280_pressure;Samples;Min_cycle;Max_cycle;Signal;HPM_P1;HPM_P2
2021/10/06 00:01:04;;;;;;;5.80;0.95;;;;;;;19.43;46.58;100700.41;5059026;28;20079;-61
2021/10/06 00:03:30;;;;;;;5.05;0.43;;;;;;;19.42;46.61;100706.88;5058574;28;20096;-60
2021/10/06 00:05:55;;;;;;;3.88;0.98;;;;;;;19.42;46.67;100709.59;5041042;28;20024;-60
2021/10/06 00:08:21;;;;;;;3.42;0.70;;;;;;;19.41;46.11;100710.63;5058288;28;20028;-61
2021/10/06 00:10:46;;;;;;;2.03;0.45;;;;;;;19.40;46.61;100708.94;5057940;28;20035;-63
2021/10/06 00:13:14;;;;;;;1.70;0.50;;;;;;;19.37;46.73;100701.16;5039415;28;20028;-62
2021/10/06 00:15:40;;;;;;;0.95;0.60;;;;;;;19.38;46.38;100705.53;5057525;28;20021;-62
2021/10/06 00:18:06;;;;;;;1.55;1.00;;;;;;;19.37;46.72;100698.44;5057447;28;20036;-63
2021/10/06 00:20:31;;;;;;;4.90;0.73;;;;;;;19.36;46.19;100704.88;5057088;28;20365;-63
2021/10/06 00:22:56;;;;;;;2.38;0.50;;;;;;;19.28;46.35;100699.56;5056703;28;20108;-63
2021/10/06 00:25:22;;;;;;;2.50;0.68;;;;;;;19.27;46.86;100708.72;5057154;28;20546;-63
2021/10/06 00:27:49;;;;;;;4.82;0.95;;;;;;;19.28;46.69;100715.84;5039167;28;20028;-62
2021/10/06 00:30:15;;;;;;;6.47;0.75;;;;;;;19.27;46.43;100715.00;5057199;28;20040;-63
2021/10/06 00:32:40;;;;;;;8.02;0.70;;;;;;;19.28;46.28;100724.00;5056849;28;20040;-63
2021/10/06 00:35:06;;;;;;;2.28;0.80;;;;;;;19.27;46.41;100719.59;5057044;28;20036;-63
2021/10/06 00:37:31;;;;;;;3.95;1.15;;;;;;;19.26;46.77;100717.91;5057262;28;20111;-62
2021/10/06 00:39:57;;;;;;;2.25;0.63;;;;;;;19.26;46.71;100728.78;5057135;28;20461;-63
2021/10/06 00:42:22;;;;;;;4.28;0.60;;;;;;;19.24;46.99;100730.81;5057308;28;20413;-63
2021/10/06 00:44:47;;;;;;;2.58;0.70;;;;;;;19.21;46.51;100720.38;5056500;28;20017;-62
2021/10/06 00:47:13;;;;;;;1.95;1.48;;;;;;;19.19;47.02;100724.09;5038616;28;20068;-62
2021/10/06 00:49:40;;;;;;;0.93;0.40;;;;;;;19.18;46.49;100727.81;5056639;28;20029;-63
2021/10/06 00:52:06;;;;;;;3.80;0.50;;;;;;;19.17;46.84;100734.31;5056879;28;20025;-62
2021/10/06 00:54:31;;;;;;;2.90;0.50;;;;;;;19.17;46.80;100734.31;5038564;28;20029;-62
2021/10/06 00:56:57;;;;;;;5.78;1.50;;;;;;;19.16;46.68;100735.34;5038326;28;20053;-63
2021/10/06 00:59:22;;;;;;;2.22;0.40;;;;;;;19.17;47.42;100747.88;5056604;28;20063;-62
2021/10/06 01:01:47;;;;;;;4.55;1.10;;;;;;;19.12;46.93;100744.88;5038763;28;20535;-63
2021/10/06 01:04:13;;;;;;;7.88;0.85;;;;;;;19.11;46.75;100747.78;5056513;28;20029;-63
2021/10/06 01:06:38;;;;;;;3.47;0.68;;;;;;;19.10;46.40;100748.81;5038559;28;20052;-63
2021/10/06 01:09:04;;;;;;;5.72;0.90;;;;;;;19.02;46.61;100747.03;5039061;28;20119;-63
2021/10/06 01:11:29;;;;;;;3.63;0.82;;;;;;;19.02;46.90;100754.31;5056147;28;20028;-63
2021/10/06 01:13:55;;;;;;;10.02;0.85;;;;;;;19.01;47.26;100764.34;5056487;28;20036;-63
2021/10/06 01:16:22;;;;;;;4.55;1.63;;;;;;;19.01;46.78;100763.50;5021848;28;20412;-63
2021/10/06 01:18:49;;;;;;;7.82;0.80;;;;;;;18.97;47.32;100749.47;5055710;28;20071;-63
2021/10/06 01:21:18;;;;;;;3.35;0.80;;;;;;;18.97;47.37;100748.63;5055855;28;20025;-63
2021/10/06 01:23:45;;;;;;;5.88;1.35;;;;;;;18.96;46.89;100755.91;5021875;28;20032;-63
2021/10/06 01:26:11;;;;;;;8.85;0.80;;;;;;;18.90;47.42;100750.41;5021530;28;20388;-63
2021/10/06 01:28:37;;;;;;;2.83;0.90;;;;;;;18.92;46.80;100759.19;5055703;28;20025;-63
2021/10/06 01:31:02;;;;;;;3.55;0.80;;;;;;;18.95;47.33;100754.25;5055134;28;20025;-63
2021/10/06 01:33:29;;;;;;;3.22;0.70;;;;;;;18.97;46.91;100763.03;5055466;28;20024;-62
2021/10/06 01:35:55;;;;;;;7.03;0.73;;;;;;;18.97;47.00;100768.47;5055649;28;20425;-63
2021/10/06 01:38:20;;;;;;;5.55;1.25;;;;;;;18.99;46.87;100769.13;5055799;28;20079;-62
2021/10/06 01:40:46;;;;;;;2.47;0.60;;;;;;;18.98;47.40;100761.97;5038239;28;20385;-63
2021/10/06 01:43:11;;;;;;;4.13;0.60;;;;;;;18.96;47.49;100764.06;5055606;28;20033;-63
2021/10/06 01:45:36;;;;;;;4.72;0.85;;;;;;;18.97;47.56;100762.19;5055618;28;20025;-63
2021/10/06 01:48:12;;;;;;;2.78;0.65;;;;;;;18.96;46.95;100766.75;5037831;28;20048;-63
2021/10/06 01:50:41;;;;;;;6.28;0.60;;;;;;;18.96;47.20;100766.75;5055425;28;20028;-63
2021/10/06 01:53:07;;;;;;;3.70;0.85;;;;;;;18.96;46.71;100766.75;5055155;28;20017;-63
2021/10/06 01:55:32;;;;;;;2.25;0.60;;;;;;;18.96;46.68;100772.19;5054746;28;20025;-62
2021/10/06 01:58:00;;;;;;;2.05;0.50;;;;;;;18.95;47.41;100770.53;5054514;28;20505;-63
2021/10/06 02:00:26;;;;;;;6.35;0.73;;;;;;;18.96;46.96;100772.19;5055145;28;20032;-63
2021/10/06 02:02:52;;;;;;;4.38;0.52;;;;;;;18.96;47.20;100777.63;5054900;28;20048;-62
2021/10/06 02:05:18;;;;;;;1.77;0.43;;;;;;;18.94;47.63;100779.69;5055037;28;20021;-63
2021/10/06 02:07:43;;;;;;;1.85;0.73;;;;;;;18.94;46.94;100771.53;5037674;28;20033;-63
2021/10/06 02:10:09;;;;;;;4.38;0.82;;;;;;;18.92;46.84;100765.47;5055116;28;20567;-63
2021/10/06 02:12:34;;;;;;;3.95;1.60;;;;;;;18.93;47.34;100782.56;5037345;28;20436;-62
2021/10/06 02:15:00;;;;;;;5.20;0.90;;;;;;;18.92;47.35;100779.03;5037141;28;20025;-63
2021/10/06 02:17:26;;;;;;;6.95;0.95;;;;;;;18.91;46.68;100774.63;5054595;28;20542;-63
2021/10/06 02:19:51;;;;;;;6.00;1.05;;;;;;;18.90;47.74;100770.22;5020432;28;20100;-62
2021/10/06 02:22:16;;;;;;;13.30;1.25;;;;;;;18.93;47.23;100780.72;5036557;28;20029;-63
2021/10/06 02:24:42;;;;;;;5.53;0.93;;;;;;;18.90;46.63;100775.66;5054788;28;20464;-63
2021/10/06 02:27:08;;;;;;;3.33;0.65;;;;;;;18.91;47.38;100771.91;5037177;28;20036;-62
2021/10/06 02:29:33;;;;;;;3.42;0.70;;;;;;;18.91;47.16;100761.06;5054452;28;20028;-62
2021/10/06 02:31:59;;;;;;;10.95;0.85;;;;;;;18.90;46.81;100770.22;5054908;28;20025;-63
2021/10/06 02:34:24;;;;;;;7.60;1.27;;;;;;;18.89;47.19;100782.13;5054296;28;20083;-63
2021/10/06 02:36:52;;;;;;;8.80;0.88;;;;;;;18.93;47.20;100777.16;5054454;28;20025;-63
2021/10/06 02:39:17;;;;;;;3.58;0.98;;;;;;;18.93;46.94;100780.72;5054969;28;20021;-63
2021/10/06 02:41:42;;;;;;;4.75;1.42;;;;;;;18.93;47.42;100780.72;5037176;28;20035;-63
2021/10/06 02:44:08;;;;;;;7.20;0.85;;;;;;;18.93;47.56;100788.00;5040164;28;20025;-63
2021/10/06 02:46:33;;;;;;;6.13;0.70;;;;;;;18.92;47.82;100791.75;5058831;28;20044;-63
2021/10/06 02:48:58;;;;;;;2.92;0.70;;;;;;;18.92;47.54;100779.03;5058295;28;20507;-62
2021/10/06 02:51:24;;;;;;;2.67;0.60;;;;;;;18.90;47.15;100783.78;5040690;28;20025;-63
2021/10/06 02:53:49;;;;;;;3.92;0.90;;;;;;;18.88;47.13;100775.00;5059011;28;20100;-63
2021/10/06 02:56:14;;;;;;;6.40;0.95;;;;;;;18.90;47.96;100786.50;5057924;28;20025;-62
2021/10/06 02:58:41;;;;;;;4.53;0.65;;;;;;;18.91;47.07;100790.91;5040409;28;20056;-63
2021/10/06 03:01:06;;;;;;;2.67;0.57;;;;;;;18.91;47.37;100776.50;5058560;28;20024;-62
2021/10/06 03:03:31;;;;;;;4.18;0.93;;;;;;;18.90;47.37;100772.94;5058544;28;20384;-63
2021/10/06 03:05:57;;;;;;;6.90;0.82;;;;;;;18.90;47.81;100778.34;5057856;28;20385;-63
2021/10/06 03:08:22;;;;;;;1.75;0.52;;;;;;;18.87;47.31;100784.16;5024090;28;20020;-63
2021/10/06 03:10:48;;;;;;;2.08;0.73;;;;;;;18.88;47.18;100783.13;5057897;28;20098;-63
2021/10/06 03:13:13;;;;;;;3.25;0.73;;;;;;;18.86;46.85;100787.91;5039968;28;20521;-63
2021/10/06 03:15:38;;;;;;;5.05;1.10;;;;;;;18.86;47.22;100787.06;5040863;28;20023;-61
2021/10/06 03:18:04;;;;;;;4.50;0.90;;;;;;;18.85;46.89;100778.06;5059028;28;20028;-60
2021/10/06 03:20:29;;;;;;;1.65;0.82;;;;;;;18.82;47.59;100792.00;5058925;28;20024;-60
2021/10/06 03:22:54;;;;;;;6.05;0.65;;;;;;;18.78;47.30;100774.41;5041644;28;20384;-61
2021/10/06 03:25:20;;;;;;;6.75;0.68;;;;;;;18.80;47.29;100782.38;5058701;28;20017;-63
2021/10/06 03:27:45;;;;;;;8.43;1.00;;;;;;;18.74;47.86;100783.94;5057973;28;20021;-60
2021/10/06 03:30:11;;;;;;;3.03;0.80;;;;;;;18.78;46.92;100785.28;5024894;28;20025;-60
2021/10/06 03:32:36;;;;;;;1.50;0.50;;;;;;;18.80;47.39;100782.38;5040976;28;20060;-60
2021/10/06 03:35:02;;;;;;;7.63;0.70;;;;;;;18.80;47.76;100783.22;5058245;28;20021;-60
2021/10/06 03:37:27;;;;;;;4.95;0.90;;;;;;;18.80;47.79;100791.34;5059025;28;20036;-61
2021/10/06 03:39:53;;;;;;;1.52;0.73;;;;;;;18.79;47.42;100792.38;5058525;28;20078;-60
2021/10/06 03:42:18;;;;;;;6.47;1.10;;;;;;;18.79;47.53;100808.66;5040538;28;20037;-60
2021/10/06 03:44:44;;;;;;;8.15;0.60;;;;;;;18.79;46.73;100810.56;5041120;28;20359;-61
2021/10/06 03:47:09;;;;;;;5.32;1.63;;;;;;;18.82;47.11;100799.31;5039927;28;20056;-60
2021/10/06 03:49:34;;;;;;;5.85;0.90;;;;;;;18.83;47.22;100804.56;5058249;28;20056;-61
2021/10/06 03:52:00;;;;;;;2.88;0.40;;;;;;;18.85;47.80;100804.38;5040697;28;20031;-60
2021/10/06 03:54:25;;;;;;;2.75;0.50;;;;;;;18.84;47.83;100806.25;5058502;28;20025;-60
2021/10/06 03:56:52;;;;;;;6.90;0.80;;;;;;;18.84;46.89;100803.56;5024507;28;20031;-60
2021/10/06 03:59:17;;;;;;;6.32;0.73;;;;;;;18.82;47.60;100800.16;5040498;28;20029;-60
2021/10/06 04:01:43;;;;;;;3.80;0.60;;;;;;;18.85;47.76;100809.78;5058109;28;20040;-61
2021/10/06 04:04:08;;;;;;;2.67;0.65;;;;;;;18.84;46.85;100811.69;5057896;28;20021;-60
2021/10/06 04:06:33;;;;;;;4.35;0.80;;;;;;;18.83;47.12;100820.84;5058623;28;20033;-60
2021/10/06 04:08:59;;;;;;;2.33;0.50;;;;;;;18.83;47.26;100831.72;5058192;28;20025;-60
2021/10/06 04:11:24;;;;;;;4.18;0.90;;;;;;;18.86;46.95;100834.06;5040223;28;20469;-61
2021/10/06 04:13:50;;;;;;;4.40;0.63;;;;;;;18.84;46.85;100846.97;5058006;28;20105;-60
2021/10/06 04:16:15;;;;;;;6.97;0.95;;;;;;;18.84;47.25;100836.13;5058107;28;20533;-60
2021/10/06 04:18:41;;;;;;;7.40;1.70;;;;;;;18.85;46.98;100836.94;5057848;28;20049;-62
2021/10/06 04:21:06;;;;;;;6.72;0.90;;;;;;;18.85;47.42;100843.22;5057008;28;20476;-63
2021/10/06 04:23:32;;;;;;;2.17;0.40;;;;;;;18.85;47.44;100848.66;5038939;28;20041;-63
2021/10/06 04:25:57;;;;;;;5.35;1.13;;;;;;;18.86;46.52;100858.50;5056300;28;20053;-62
2021/10/06 04:28:22;;;;;;;2.35;0.77;;;;;;;18.85;47.02;100853.22;5056722;28;20032;-63
2021/10/06 04:30:48;;;;;;;5.40;0.70;;;;;;;18.88;46.92;100842.84;5056421;28;20052;-63
2021/10/06 04:33:13;;;;;;;4.97;0.68;;;;;;;18.92;47.24;100855.06;5039237;28;20046;-63
2021/10/06 04:35:39;;;;;;;0.80;0.35;;;;;;;18.91;46.69;100866.94;5056285;28;20020;-63
2021/10/06 04:38:04;;;;;;;3.10;0.90;;;;;;;18.85;46.85;100859.50;5056819;28;20114;-63
2021/10/06 04:40:29;;;;;;;6.60;0.75;;;;;;;18.88;47.16;100870.00;5038779;28;20483;-63
2021/10/06 04:42:55;;;;;;;2.13;0.40;;;;;;;18.84;46.96;100849.69;5039111;28;20031;-63
2021/10/06 04:45:22;;;;;;;4.15;0.70;;;;;;;18.87;47.01;100846.59;5056358;28;20027;-63
2021/10/06 04:47:47;;;;;;;2.75;0.82;;;;;;;18.85;47.13;100851.34;5056840;28;20086;-63
2021/10/06 04:50:12;;;;;;;4.00;0.60;;;;;;;18.89;47.05;100852.69;5056555;28;20036;-63
2021/10/06 04:52:38;;;;;;;2.67;0.73;;;;;;;18.87;47.38;100852.00;5056537;28;20413;-63
2021/10/06 04:55:04;;;;;;;8.00;0.85;;;;;;;18.89;47.04;100858.13;5055974;28;20024;-63
2021/10/06 04:57:29;;;;;;;3.70;0.80;;;;;;;18.91;47.48;100866.06;5055361;28;20045;-63
2021/10/06 04:59:55;;;;;;;9.60;0.80;;;;;;;18.90;47.10;100864.41;5055314;28;20118;-63
2021/10/06 05:02:20;;;;;;;2.42;0.80;;;;;;;18.95;47.46;100868.25;5055969;28;20456;-63
2021/10/06 05:04:45;;;;;;;7.28;0.70;;;;;;;18.95;46.99;100873.69;5037827;28;20384;-63
2021/10/06 05:07:11;;;;;;;5.72;1.00;;;;;;;18.96;47.14;100875.34;5055389;28;20108;-63
2021/10/06 05:09:36;;;;;;;1.25;0.50;;;;;;;18.96;46.96;100891.66;5055899;28;20021;-63
2021/10/06 05:12:02;;;;;;;2.10;0.30;;;;;;;18.98;47.03;100897.72;5037695;28;20535;-63
2021/10/06 05:14:28;;;;;;;4.40;0.68;;;;;;;19.02;46.61;100895.50;5055684;28;20534;-63
2021/10/06 05:16:54;;;;;;;2.67;0.70;;;;;;;19.04;46.98;100904.31;5055573;28;20021;-63
2021/10/06 05:19:20;;;;;;;2.75;0.68;;;;;;;19.04;46.65;100899.72;5055290;28;20155;-63
2021/10/06 05:21:45;;;;;;;3.00;0.50;;;;;;;18.99;47.08;100896.72;5056015;28;20032;-63
2021/10/06 05:24:10;;;;;;;9.60;0.80;;;;;;;19.00;47.08;100898.41;5056006;28;20036;-63
2021/10/06 05:26:36;;;;;;;4.35;0.95;;;;;;;18.99;47.10;100907.56;5055834;28;20024;-63
2021/10/06 05:29:02;;;;;;;1.00;0.65;;;;;;;18.95;46.84;100900.84;5037707;28;20028;-62
2021/10/06 05:31:27;;;;;;;2.97;1.88;;;;;;;18.95;47.54;100905.41;5055256;28;20098;-63
2021/10/06 05:33:53;;;;;;;3.38;0.70;;;;;;;18.92;47.07;100901.19;5055348;28;20029;-62
2021/10/06 05:36:18;;;;;;;3.13;0.65;;;;;;;18.88;47.13;100899.84;5037133;28;20025;-63
2021/10/06 05:38:44;;;;;;;4.35;0.80;;;;;;;18.90;47.14;100908.66;5055781;28;20032;-63
2021/10/06 05:41:09;;;;;;;4.93;0.57;;;;;;;18.88;47.30;100902.56;5055698;28;20025;-62
2021/10/06 05:43:35;;;;;;;1.13;0.38;;;;;;;18.84;47.12;100903.97;5037813;28;20048;-63
2021/10/06 05:46:00;;;;;;;2.08;0.60;;;;;;;18.86;47.43;100912.78;5055739;28;20020;-63
2021/10/06 05:48:26;;;;;;;3.42;0.63;;;;;;;18.82;47.81;100926.88;5037623;28;20028;-63
2021/10/06 05:50:51;;;;;;;3.00;0.65;;;;;;;18.76;47.77;100924.91;5055008;28;20484;-61
2021/10/06 05:53:18;;;;;;;4.45;0.65;;;;;;;18.73;47.76;100917.13;5054706;28;20017;-61
2021/10/06 05:55:43;;;;;;;4.15;0.77;;;;;;;18.69;47.68;100924.75;5054598;28;20112;-62
2021/10/06 05:58:08;;;;;;;7.97;0.80;;;;;;;18.67;48.36;100931.41;5055344;28;20126;-61
2021/10/06 06:00:34;;;;;;;6.97;0.80;;;;;;;18.63;47.47;100946.34;5055249;28;20033;-61
2021/10/06 06:02:59;;;;;;;7.60;0.80;;;;;;;18.57;47.48;100935.19;5054910;28;20554;-61
2021/10/06 06:05:25;;;;;;;3.13;1.10;;;;;;;18.50;48.16;100928.78;5055013;28;20439;-61
2021/10/06 06:07:50;;;;;;;4.95;0.82;;;;;;;18.44;47.69;100939.47;5054795;28;20031;-61
2021/10/06 06:10:16;;;;;;;3.13;0.40;;;;;;;18.38;48.24;100940.16;5054686;28;20052;-61
2021/10/06 06:12:42;;;;;;;3.47;0.95;;;;;;;18.27;49.05;100927.00;5037118;28;20438;-61
2021/10/06 06:15:09;;;;;;;6.13;0.88;;;;;;;18.27;48.79;100921.56;5054898;28;20029;-61
2021/10/06 06:17:37;;;;;;;3.70;0.95;;;;;;;18.21;48.02;100935.81;5058487;28;20099;-61
2021/10/06 06:20:11;;;;;;;2.78;0.88;;;;;;;18.15;48.22;100926.53;5044318;28;20039;-61
2021/10/06 06:22:37;;;;;;;5.90;0.98;;;;;;;18.13;48.57;100920.44;5061590;28;20473;-61
2021/10/06 06:25:04;;;;;;;0.77;0.50;;;;;;;18.13;48.52;100930.44;5061422;28;20029;-61
2021/10/06 06:27:30;;;;;;;6.03;1.60;;;;;;;18.12;48.43;100928.78;5061856;28;20063;-60
2021/10/06 06:29:55;;;;;;;3.72;0.70;;;;;;;18.11;49.10;100933.34;5061124;28;20048;-61
2021/10/06 06:32:20;;;;;;;6.50;0.60;;;;;;;18.10;48.70;100919.94;5058771;28;20033;-61
2021/10/06 06:34:46;;;;;;;4.75;0.93;;;;;;;18.16;49.28;100924.66;5033195;28;20358;-61
2021/10/06 06:37:11;;;;;;;5.28;1.00;;;;;;;18.21;48.85;100916.84;5053130;28;20079;-61
2021/10/06 06:39:37;;;;;;;3.85;0.82;;;;;;;18.26;48.75;100925.28;5045295;28;20172;-61
2021/10/06 06:42:02;;;;;;;7.13;0.63;;;;;;;18.27;48.00;100921.56;5006656;28;20503;-61
2021/10/06 06:44:27;;;;;;;2.60;0.90;;;;;;;18.31;48.43;100923.78;5041099;28;20021;-61
2021/10/06 06:46:53;;;;;;;3.70;0.80;;;;;;;18.37;48.94;100924.94;5040843;28;20037;-61
2021/10/06 06:49:18;;;;;;;1.60;0.50;;;;;;;18.41;49.08;100918.09;5040836;28;20474;-61
2021/10/06 06:51:43;;;;;;;3.13;0.45;;;;;;;18.45;48.45;100924.88;5040838;28;20083;-61
2021/10/06 06:54:09;;;;;;;5.15;0.90;;;;;;;18.49;48.97;100926.22;5041016;28;20041;-61
2021/10/06 06:56:38;;;;;;;4.88;1.10;;;;;;;18.52;48.09;100931.31;5055434;28;20065;-61
2021/10/06 06:59:06;;;;;;;5.72;1.15;;;;;;;18.54;48.48;100924.69;5060672;28;20103;-61
2021/10/06 07:01:31;;;;;;;6.53;0.90;;;;;;;18.67;47.91;100940.38;5060955;28;20425;-61
2021/10/06 07:03:56;;;;;;;4.68;0.57;;;;;;;18.77;48.07;100941.00;5061043;28;20051;-61
2021/10/06 07:06:22;;;;;;;6.65;0.60;;;;;;;18.89;48.54;100938.72;5059217;28;20477;-61
2021/10/06 07:08:48;;;;;;;4.50;0.80;;;;;;;18.93;48.24;100940.03;5007085;28;20469;-61
2021/10/06 07:11:14;;;;;;;3.72;1.45;;;;;;;18.93;48.14;100938.16;5041039;28;20025;-61
2021/10/06 07:13:39;;;;;;;5.90;0.70;;;;;;;18.94;47.69;100939.88;5041167;28;20029;-61
2021/10/06 07:16:05;;;;;;;6.30;0.90;;;;;;;18.91;48.40;100939.38;5040696;28;20029;-61
2021/10/06 07:18:30;;;;;;;2.22;0.60;;;;;;;18.89;48.79;100950.44;5040529;28;20033;-61
2021/10/06 07:20:55;;;;;;;4.10;1.08;;;;;;;18.88;48.17;100954.16;5040728;28;20029;-61
2021/10/06 07:23:22;;;;;;;8.85;1.00;;;;;;;18.86;48.81;100944.50;5041357;28;20114;-61
2021/10/06 07:25:47;;;;;;;5.07;0.95;;;;;;;18.89;47.70;100944.16;5040638;28;20029;-61
2021/10/06 07:28:13;;;;;;;3.97;1.10;;;;;;;18.91;48.11;100959.22;5021628;28;20030;-61
2021/10/06 07:30:38;;;;;;;12.27;1.38;;;;;;;18.93;47.94;100938.16;5037036;28;20107;-62
2021/10/06 07:33:03;;;;;;;2.55;0.47;;;;;;;19.02;47.75;100950.66;5037061;28;20025;-61
2021/10/06 07:35:29;;;;;;;4.13;0.80;;;;;;;18.99;48.43;100952.88;5037797;28;20529;-62
2021/10/06 07:37:54;;;;;;;5.68;0.90;;;;;;;19.04;48.12;100948.59;5038077;28;20028;-61
2021/10/06 07:40:19;;;;;;;7.47;1.55;;;;;;;19.09;48.19;100962.50;5037524;28;20029;-61
2021/10/06 07:42:45;;;;;;;5.60;0.77;;;;;;;19.13;48.04;100968.41;5020335;28;20037;-61
2021/10/06 07:45:10;;;;;;;4.07;0.80;;;;;;;19.17;48.05;100970.59;5037727;28;20025;-61
2021/10/06 07:47:36;;;;;;;5.65;0.73;;;;;;;19.16;48.44;100968.03;5037527;28;20033;-61
2021/10/06 07:50:02;;;;;;;5.25;0.77;;;;;;;19.11;48.25;100993.03;5020263;28;20517;-61
2021/10/06 07:52:27;;;;;;;6.25;1.08;;;;;;;19.11;48.08;100987.59;5037507;28;20026;-61
2021/10/06 07:54:52;;;;;;;5.50;0.75;;;;;;;19.11;47.78;100990.31;5019597;28;20057;-61
2021/10/06 07:57:18;;;;;;;3.92;0.50;;;;;;;19.07;48.56;100986.25;5037042;28;20050;-61
2021/10/06 07:59:43;;;;;;;1.65;0.55;;;;;;;19.00;48.40;100990.72;5037880;28;20445;-61
2021/10/06 08:02:10;;;;;;;4.53;0.73;;;;;;;18.96;48.24;100997.53;5037389;28;20026;-61
2021/10/06 08:04:36;;;;;;;6.20;0.82;;;;;;;18.96;48.20;100992.09;5037400;28;20072;-61
2021/10/06 08:07:02;;;;;;;2.22;0.70;;;;;;;18.95;48.56;100997.72;5044384;28;20104;-61
2021/10/06 08:09:27;;;;;;;3.70;1.00;;;;;;;18.95;48.62;100987.72;5037453;28;20025;-61
2021/10/06 08:11:52;;;;;;;1.70;0.60;;;;;;;18.97;48.17;100991.09;5036961;28;20037;-61
2021/10/06 08:14:18;;;;;;;3.13;0.70;;;;;;;18.94;49.04;100999.59;5019564;28;20082;-61
2021/10/06 08:16:43;;;;;;;3.50;0.63;;;;;;;18.92;48.22;101004.38;5036716;28;20029;-61
2021/10/06 08:19:08;;;;;;;3.72;0.85;;;;;;;18.93;48.31;101003.31;5036990;28;20083;-62
2021/10/06 08:21:34;;;;;;;2.47;0.73;;;;;;;18.95;48.52;101014.88;5037231;28;20034;-61
2021/10/06 08:23:59;;;;;;;4.05;0.77;;;;;;;18.95;48.87;101009.44;5042585;28;20372;-61
2021/10/06 08:26:24;;;;;;;3.10;0.60;;;;;;;18.93;48.49;101018.75;5039754;28;20025;-61
2021/10/06 08:28:50;;;;;;;3.65;0.85;;;;;;;18.90;48.69;101017.25;5036445;28;20026;-61
2021/10/06 08:31:15;;;;;;;3.25;0.65;;;;;;;18.90;48.60;101028.09;5036736;28;20454;-62
2021/10/06 08:33:41;;;;;;;3.15;0.70;;;;;;;18.94;48.82;101028.59;5036425;28;20040;-61
2021/10/06 08:36:06;;;;;;;4.55;1.52;;;;;;;18.97;49.43;101037.25;5019386;28;20547;-62
2021/10/06 08:38:33;;;;;;;3.30;0.73;;;;;;;18.99;48.70;101043.34;5027020;28;20453;-61
2021/10/06 08:40:59;;;;;;;3.72;0.77;;;;;;;19.02;48.84;101044.84;5045492;28;20418;-61
2021/10/06 08:43:24;;;;;;;5.72;0.68;;;;;;;19.04;48.77;101040.91;5030799;28;20088;-61
2021/10/06 08:45:50;;;;;;;5.45;0.70;;;;;;;19.08;48.72;101046.84;5036309;28;20457;-61
2021/10/06 08:48:15;;;;;;;1.08;0.45;;;;;;;19.13;48.57;101050.72;5056835;28;20116;-62
2021/10/06 08:50:41;;;;;;;5.50;0.50;;;;;;;19.19;48.57;101044.56;5056613;28;20082;-62
2021/10/06 08:53:06;;;;;;;8.23;0.75;;;;;;;19.22;48.65;101043.38;5038697;28;20036;-61
2021/10/06 08:55:32;;;;;;;3.75;0.80;;;;;;;19.27;48.76;101050.97;5055710;28;20485;-61
2021/10/06 08:58:01;;;;;;;6.72;0.70;;;;;;;19.29;48.84;101063.34;5046417;28;20046;-61
2021/10/06 09:00:27;;;;;;;2.95;0.63;;;;;;;19.29;48.96;101071.50;5035733;28;20049;-61
2021/10/06 09:02:52;;;;;;;3.00;0.77;;;;;;;19.35;48.70;101069.94;5019159;28;20389;-61
2021/10/06 09:05:22;;;;;;;1.35;0.60;;;;;;;19.38;49.18;101059.59;5036376;28;20025;-61
2021/10/06 09:08:01;;;;;;;1.05;0.60;;;;;;;19.38;49.04;101075.00;5036458;28;20025;-61
2021/10/06 09:10:28;;;;;;;5.32;0.60;;;;;;;19.38;49.17;101072.28;5035899;28;20034;-61
2021/10/06 09:12:58;;;;;;;1.23;0.55;;;;;;;19.37;49.37;101073.34;5036301;28;20025;-61
2021/10/06 09:15:24;;;;;;;4.53;0.60;;;;;;;19.33;49.50;101074.69;5035946;28;20026;-61
2021/10/06 09:17:54;;;;;;;2.75;0.50;;;;;;;19.29;49.05;101084.25;5036312;28;20032;-61
2021/10/06 09:20:19;;;;;;;5.50;0.73;;;;;;;19.28;49.04;101085.25;5036344;28;20030;-61
2021/10/06 09:22:59;;;;;;;2.90;1.38;;;;;;;19.25;49.54;101081.03;5036609;28;20346;-61
2021/10/06 09:25:27;;;;;;;2.13;0.47;;;;;;;19.24;50.06;101086.63;5036103;28;20041;-61
2021/10/06 09:27:52;;;;;;;1.80;0.88;;;;;;;19.22;50.05;101075.13;5035629;28;20024;-61
2021/10/06 09:30:18;;;;;;;0.63;0.35;;;;;;;19.26;49.81;101087.31;5018343;28;20030;-61
2021/10/06 09:32:45;;;;;;;1.85;0.70;;;;;;;19.29;49.32;101097.84;5035497;28;20037;-61
2021/10/06 09:35:13;;;;;;;0.73;0.60;;;;;;;19.31;49.61;101095.78;5036147;28;20021;-61
2021/10/06 09:37:42;;;;;;;4.03;0.50;;;;;;;19.34;49.68;101096.28;5035683;28;20032;-61
2021/10/06 09:40:09;;;;;;;2.08;0.80;;;;;;;19.41;49.27;101099.13;5035926;28;20030;-61
2021/10/06 09:42:49;;;;;;;2.60;0.75;;;;;;;19.45;49.23;101101.31;5035716;28;20087;-61
2021/10/06 09:45:24;;;;;;;0.52;0.40;;;;;;;19.49;49.63;101109.94;5034899;28;20024;-62
2021/10/06 09:48:03;;;;;;;1.95;0.80;;;;;;;19.48;49.42;101109.13;5035945;28;20039;-61
2021/10/06 09:50:28;;;;;;;1.05;0.63;;;;;;;19.52;49.16;101115.88;5047378;28;20428;-61
2021/10/06 09:52:54;;;;;;;3.03;0.63;;;;;;;19.55;49.50;101112.78;5052504;28;20070;-61
2021/10/06 09:55:20;;;;;;;5.28;0.70;;;;;;;19.62;49.37;101126.53;5055583;28;20116;-61
2021/10/06 09:57:45;;;;;;;0.95;0.70;;;;;;;19.61;49.76;101120.22;5055596;28;20055;-61
2021/10/06 10:00:15;;;;;;;2.22;0.73;;;;;;;19.61;49.00;101119.38;5055915;28;20033;-61
2021/10/06 10:02:41;;;;;;;6.40;0.90;;;;;;;19.68;49.34;101131.25;5055487;28;20051;-61
2021/10/06 10:05:08;;;;;;;2.28;0.60;;;;;;;19.72;49.63;101132.56;5055588;28;20104;-61
2021/10/06 10:07:33;;;;;;;3.30;0.85;;;;;;;19.74;49.38;101134.06;5055385;28;20036;-61
2021/10/06 10:10:04;;;;;;;4.45;0.70;;;;;;;19.82;49.53;101138.56;5055665;28;20028;-61
2021/10/06 10:12:30;;;;;;;2.45;0.77;;;;;;;19.99;49.03;101144.75;5055935;28;20044;-61
2021/10/06 10:14:56;;;;;;;4.90;1.65;;;;;;;19.99;49.20;101134.72;5055022;28;20064;-61
2021/10/06 10:17:22;;;;;;;5.45;1.38;;;;;;;20.08;49.12;101149.94;5054665;28;20033;-61
2021/10/06 10:19:59;;;;;;;2.70;1.35;;;;;;;20.10;49.29;101149.78;5036768;28;20039;-61
2021/10/06 10:22:28;;;;;;;1.23;0.95;;;;;;;20.18;49.32;101155.13;5037920;28;20020;-61
2021/10/06 10:24:54;;;;;;;2.28;1.10;;;;;;;20.23;49.33;101156.28;5054990;28;20024;-61
2021/10/06 10:27:21;;;;;;;2.25;1.13;;;;;;;20.30;49.20;101168.13;5038374;28;20025;-62
2021/10/06 10:30:04;;;;;;;3.63;1.13;;;;;;;20.30;48.77;101168.13;5056550;28;20037;-61
2021/10/06 10:32:44;;;;;;;1.27;1.02;;;;;;;20.23;49.32;101163.59;5037965;28;20529;-62
2021/10/06 10:35:14;;;;;;;5.00;1.45;;;;;;;20.19;48.91;101173.13;5037359;28;20033;-62
2021/10/06 10:37:46;;;;;;;1.90;0.75;;;;;;;20.23;48.92;101179.91;5054764;28;20519;-61
2021/10/06 10:40:42;;;;;;;1.02;0.77;;;;;;;20.24;48.81;101182.47;5055336;28;20025;-61
2021/10/06 10:43:07;;;;;;;1.33;0.75;;;;;;;20.28;49.46;101183.81;5056467;28;20021;-61
2021/10/06 10:45:49;;;;;;;3.38;0.98;;;;;;;20.26;48.91;101185.03;5035565;28;20059;-62
2021/10/06 10:48:21;;;;;;;1.10;0.98;;;;;;;20.20;49.42;101197.44;5035284;28;20041;-61
2021/10/06 10:50:46;;;;;;;2.90;0.55;;;;;;;20.21;48.98;101188.25;5035469;28;20088;-61
2021/10/06 10:53:17;;;;;;;3.40;1.15;;;;;;;20.24;48.82;101189.75;5034281;28;20437;-61
2021/10/06 10:55:54;;;;;;;1.67;0.90;;;;;;;20.22;49.32;101200.81;5016493;28;20121;-61
2021/10/06 10:58:33;;;;;;;3.08;0.88;;;;;;;20.24;48.78;101204.22;5033856;28;20052;-61
2021/10/06 11:01:00;;;;;;;0.95;0.60;;;;;;;20.22;48.84;101211.72;5048626;28;20055;-61
2021/10/06 11:03:26;;;;;;;4.72;0.85;;;;;;;20.23;49.03;101213.41;5055174;28;20419;-61
2021/10/06 11:05:57;;;;;;;2.88;0.70;;;;;;;20.23;48.96;101213.41;5058671;28;20025;-61
2021/10/06 11:08:32;;;;;;;1.95;0.70;;;;;;;20.20;49.31;101212.91;5058778;28;20426;-61
2021/10/06 11:11:09;;;;;;;2.45;1.02;;;;;;;20.09;49.64;101216.91;5058524;28;20024;-61
2021/10/06 11:13:45;;;;;;;1.55;0.70;;;;;;;20.01;49.58;101222.44;5057907;28;20056;-61
2021/10/06 11:16:10;;;;;;;2.33;0.73;;;;;;;19.97;49.56;101228.38;5057626;28;20021;-61
2021/10/06 11:18:46;;;;;;;1.92;0.80;;;;;;;19.92;49.42;101226.22;5057534;28;20032;-61
2021/10/06 11:21:32;;;;;;;7.18;1.45;;;;;;;19.94;49.60;101229.59;5058373;28;20434;-61